sensor_id;sensor_type;location;lat;lon;timestamp;pressure;altitude;pressure_sealevel;temperature;humidity
10464;BME280;5279;42.048;24.638;2022-12-18T00:02:21;98044.16;;;11.33;100.00
10464;BME280;5279;42.048;24.638;2022-12-18T00:04:50;98046.94;;;11.31;100.00
10464;BME280;5279;42.048;24.638;2022-12-18T00:07:32;98047.09;;;11.30;100.00
10464;BME280;5279;42.048;24.638;2022-12-18T00:10:01;98065.09;;;11.26;100.00
10464;BME280;5279;42.048;24.638;2022-12-18T00:12:32;98064.78;;;11.20;100.00
10464;BME280;5279;42.048;24.638;2022-12-18T00:15:13;98069.97;;;11.21;100.00
10464;BME280;5279;42.048;24.638;2022-12-18T00:17:45;98080.44;;;11.23;100.00
10464;BME280;5279;42.048;24.638;2022-12-18T00:20:12;98075.28;;;11.21;100.00
10464;BME280;5279;42.048;24.638;2022-12-18T00:22:39;98093.53;;;11.15;100.00
10464;BME280;5279;42.048;24.638;2022-12-18T00:25:11;98087.13;;;11.17;100.00
10464;BME280;5279;42.048;24.638;2022-12-18T00:27:44;98097.16;;;11.14;100.00
10464;BME280;5279;42.048;24.638;2022-12-18T00:30:34;98097.19;;;11.23;100.00
10464;BME280;5279;42.048;24.638;2022-12-18T00:33:04;98089.34;;;11.22;100.00
10464;BME280;5279;42.048;24.638;2022-12-18T00:35:43;98095.50;;;11.22;100.00
10464;BME280;5279;42.048;24.638;2022-12-18T00:38:12;98109.16;;;11.08;100.00
10464;BME280;5279;42.048;24.638;2022-12-18T00:40:42;98110.09;;;10.97;100.00
10464;BME280;5279;42.048;24.638;2022-12-18T00:43:15;98118.03;;;10.97;100.00
10464;BME280;5279;42.048;24.638;2022-12-18T00:45:42;98119.72;;;10.98;100.00
10464;BME280;5279;42.048;24.638;2022-12-18T00:48:14;98116.22;;;10.98;100.00
10464;BME280;5279;42.048;24.638;2022-12-18T00:50:58;98129.41;;;11.09;100.00
10464;BME280;5279;42.048;24.638;2022-12-18T00:53:26;98127.56;;;11.10;100.00
10464;BME280;5279;42.048;24.638;2022-12-18T00:55:56;98132.06;;;11.09;100.00
10464;BME280;5279;42.048;24.638;2022-12-18T00:58:27;98131.63;;;11.14;100.00
10464;BME280;5279;42.048;24.638;2022-12-18T01:00:58;98123.69;;;11.14;100.00
10464;BME280;5279;42.048;24.638;2022-12-18T01:03:29;98125.84;;;10.89;100.00
10464;BME280;5279;42.048;24.638;2022-12-18T01:06:06;98134.75;;;10.88;100.00
10464;BME280;5279;42.048;24.638;2022-12-18T01:08:46;98131.72;;;10.93;100.00
10464;BME280;5279;42.048;24.638;2022-12-18T01:11:15;98141.75;;;10.89;100.00
10464;BME280;5279;42.048;24.638;2022-12-18T01:14:04;98139.25;;;10.88;100.00
10464;BME280;5279;42.048;24.638;2022-12-18T01:16:41;98135.75;;;10.87;100.00
10464;BME280;5279;42.048;24.638;2022-12-18T01:19:12;98135.63;;;10.98;100.00
10464;BME280;5279;42.048;24.638;2022-12-18T01:21:44;98134.63;;;10.90;100.00
10464;BME280;5279;42.048;24.638;2022-12-18T01:24:16;98128.91;;;10.94;100.00
10464;BME280;5279;42.048;24.638;2022-12-18T01:26:43;98123.34;;;10.97;100.00
10464;BME280;5279;42.048;24.638;2022-12-18T01:29:12;98117.78;;;11.01;100.00
10464;BME280;5279;42.048;24.638;2022-12-18T01:31:44;98125.38;;;11.15;100.00
10464;BME280;5279;42.048;24.638;2022-12-18T01:34:15;98123.97;;;11.20;100.00
10464;BME280;5279;42.048;24.638;2022-12-18T01:37:03;98124.28;;;11.27;100.00
10464;BME280;5279;42.048;24.638;2022-12-18T01:39:34;98123.88;;;11.31;100.00
10464;BME280;5279;42.048;24.638;2022-12-18T01:42:05;98127.34;;;11.32;100.00
10464;BME280;5279;42.048;24.638;2022-12-18T01:44:57;98135.75;;;11.27;100.00
10464;BME280;5279;42.048;24.638;2022-12-18T01:47:36;98141.59;;;11.31;100.00
10464;BME280;5279;42.048;24.638;2022-12-18T01:50:27;98140.28;;;11.16;100.00
10464;BME280;5279;42.048;24.638;2022-12-18T01:53:06;98139.31;;;11.17;100.00
10464;BME280;5279;42.048;24.638;2022-12-18T01:55:38;98135.72;;;11.18;100.00
10464;BME280;5279;42.048;24.638;2022-12-18T01:58:09;98141.03;;;11.18;100.00
10464;BME280;5279;42.048;24.638;2022-12-18T02:00:38;98143.41;;;11.21;100.00
10464;BME280;5279;42.048;24.638;2022-12-18T02:03:11;98149.38;;;11.13;100.00
10464;BME280;5279;42.048;24.638;2022-12-18T02:05:50;98140.41;;;11.05;100.00
10464;BME280;5279;42.048;24.638;2022-12-18T02:08:34;98149.59;;;11.01;100.00
10464;BME280;5279;42.048;24.638;2022-12-18T02:11:13;98151.28;;;11.02;100.00
10464;BME280;5279;42.048;24.638;2022-12-18T02:13:52;98143.75;;;11.07;100.00
10464;BME280;5279;42.048;24.638;2022-12-18T02:16:34;98133.38;;;10.84;100.00
10464;BME280;5279;42.048;24.638;2022-12-18T02:19:19;98152.09;;;10.92;100.00
10464;BME280;5279;42.048;24.638;2022-12-18T02:21:57;98158.53;;;11.00;100.00
10464;BME280;5279;42.048;24.638;2022-12-18T02:24:40;98158.28;;;11.03;100.00
10464;BME280;5279;42.048;24.638;2022-12-18T02:27:21;98164.53;;;11.02;100.00
10464;BME280;5279;42.048;24.638;2022-12-18T02:29:59;98158.28;;;11.03;100.00
10464;BME280;5279;42.048;24.638;2022-12-18T02:32:34;98160.81;;;11.14;100.00
10464;BME280;5279;42.048;24.638;2022-12-18T02:35:13;98161.66;;;11.14;100.00
10464;BME280;5279;42.048;24.638;2022-12-18T02:37:48;98151.91;;;11.15;100.00
10464;BME280;5279;42.048;24.638;2022-12-18T02:40:22;98159.31;;;11.21;100.00
10464;BME280;5279;42.048;24.638;2022-12-18T02:42:51;98154.97;;;11.20;100.00
10464;BME280;5279;42.048;24.638;2022-12-18T02:45:33;98154.34;;;11.07;100.00
10464;BME280;5279;42.048;24.638;2022-12-18T02:48:02;98163.56;;;11.03;100.00
10464;BME280;5279;42.048;24.638;2022-12-18T02:50:34;98155.69;;;10.91;100.00
10464;BME280;5279;42.048;24.638;2022-12-18T02:53:21;98141.16;;;10.86;100.00
10464;BME280;5279;42.048;24.638;2022-12-18T02:56:01;98163.47;;;10.83;100.00
10464;BME280;5279;42.048;24.638;2022-12-18T02:58:40;98165.69;;;10.78;100.00
10464;BME280;5279;42.048;24.638;2022-12-18T03:01:24;98163.16;;;10.77;100.00
10464;BME280;5279;42.048;24.638;2022-12-18T03:04:16;98156.16;;;10.66;100.00
10464;BME280;5279;42.048;24.638;2022-12-18T03:06:57;98161.97;;;10.60;100.00
10464;BME280;5279;42.048;24.638;2022-12-18T03:09:35;98157.91;;;10.56;100.00
10464;BME280;5279;42.048;24.638;2022-12-18T03:12:15;98160.38;;;10.48;100.00
10464;BME280;5279;42.048;24.638;2022-12-18T03:14:57;98166.13;;;10.53;100.00
10464;BME280;5279;42.048;24.638;2022-12-18T03:17:33;98163.28;;;10.45;100.00
10464;BME280;5279;42.048;24.638;2022-12-18T03:20:08;98174.47;;;10.49;100.00
10464;BME280;5279;42.048;24.638;2022-12-18T03:22:39;98179.50;;;10.52;100.00
10464;BME280;5279;42.048;24.638;2022-12-18T03:25:18;98180.84;;;10.46;100.00
10464;BME280;5279;42.048;24.638;2022-12-18T03:27:56;98176.91;;;10.40;100.00
10464;BME280;5279;42.048;24.638;2022-12-18T03:30:32;98182.34;;;10.39;100.00
10464;BME280;5279;42.048;24.638;2022-12-18T03:33:23;98185.50;;;10.33;100.00
10464;BME280;5279;42.048;24.638;2022-12-18T03:36:02;98188.88;;;10.35;100.00
10464;BME280;5279;42.048;24.638;2022-12-18T03:38:34;98198.69;;;10.44;100.00
10464;BME280;5279;42.048;24.638;2022-12-18T03:41:10;98206.81;;;10.52;100.00
10464;BME280;5279;42.048;24.638;2022-12-18T03:43:49;98205.59;;;10.56;100.00
10464;BME280;5279;42.048;24.638;2022-12-18T03:46:28;98213.34;;;10.69;100.00
10464;BME280;5279;42.048;24.638;2022-12-18T03:49:04;98212.78;;;10.65;100.00
10464;BME280;5279;42.048;24.638;2022-12-18T03:52:07;98220.34;;;10.70;100.00
10464;BME280;5279;42.048;24.638;2022-12-18T03:54:42;98213.41;;;10.78;100.00
10464;BME280;5279;42.048;24.638;2022-12-18T03:57:18;98227.28;;;10.91;100.00
10464;BME280;5279;42.048;24.638;2022-12-18T03:59:56;98222.72;;;10.93;100.00
10464;BME280;5279;42.048;24.638;2022-12-18T04:02:30;98219.59;;;10.88;100.00
10464;BME280;5279;42.048;24.638;2022-12-18T04:05:09;98223.84;;;11.01;100.00
10464;BME280;5279;42.048;24.638;2022-12-18T04:07:53;98224.56;;;11.03;100.00
10464;BME280;5279;42.048;24.638;2022-12-18T04:10:28;98232.25;;;11.06;100.00
10464;BME280;5279;42.048;24.638;2022-12-18T04:13:05;98232.31;;;10.94;100.00
10464;BME280;5279;42.048;24.638;2022-12-18T04:15:40;98222.44;;;10.96;100.00
10464;BME280;5279;42.048;24.638;2022-12-18T04:18:08;98237.25;;;10.99;100.00
10464;BME280;5279;42.048;24.638;2022-12-18T04:20:36;98241.19;;;11.05;100.00
10464;BME280;5279;42.048;24.638;2022-12-18T04:23:08;98237.56;;;11.06;100.00
10464;BME280;5279;42.048;24.638;2022-12-18T04:25:37;98246.22;;;11.08;100.00
10464;BME280;5279;42.048;24.638;2022-12-18T04:28:08;98242.59;;;11.09;100.00
10464;BME280;5279;42.048;24.638;2022-12-18T04:30:41;98232.78;;;11.00;100.00
10464;BME280;5279;42.048;24.638;2022-12-18T04:33:32;98248.44;;;11.03;100.00
10464;BME280;5279;42.048;24.638;2022-12-18T04:36:03;98254.84;;;11.00;100.00
10464;BME280;5279;42.048;24.638;2022-12-18T04:38:35;98255.94;;;10.97;100.00
10464;BME280;5279;42.048;24.638;2022-12-18T04:41:07;98260.53;;;10.95;100.00
10464;BME280;5279;42.048;24.638;2022-12-18T04:43:45;98269.28;;;10.86;100.00
10464;BME280;5279;42.048;24.638;2022-12-18T04:46:15;98266.88;;;10.83;100.00
10464;BME280;5279;42.048;24.638;2022-12-18T04:48:47;98268.94;;;10.80;100.00
10464;BME280;5279;42.048;24.638;2022-12-18T04:51:16;98272.00;;;10.75;100.00
10464;BME280;5279;42.048;24.638;2022-12-18T04:54:16;98286.78;;;10.78;100.00
10464;BME280;5279;42.048;24.638;2022-12-18T04:56:57;98288.16;;;10.72;100.00
10464;BME280;5279;42.048;24.638;2022-12-18T04:59:55;98289.53;;;10.67;100.00
10464;BME280;5279;42.048;24.638;2022-12-18T05:02:32;98282.59;;;10.55;100.00
10464;BME280;5279;42.048;24.638;2022-12-18T05:05:01;98295.94;;;10.53;100.00
10464;BME280;5279;42.048;24.638;2022-12-18T05:07:34;98288.50;;;10.47;100.00
10464;BME280;5279;42.048;24.638;2022-12-18T05:10:14;98298.94;;;10.28;100.00
10464;BME280;5279;42.048;24.638;2022-12-18T05:12:41;98308.03;;;10.46;100.00
10464;BME280;5279;42.048;24.638;2022-12-18T05:15:23;98308.28;;;10.43;100.00
10464;BME280;5279;42.048;24.638;2022-12-18T05:17:57;98313.38;;;10.35;100.00
10464;BME280;5279;42.048;24.638;2022-12-18T05:20:30;98328.31;;;10.36;100.00
10464;BME280;5279;42.048;24.638;2022-12-18T05:23:00;98326.38;;;10.38;100.00
10464;BME280;5279;42.048;24.638;2022-12-18T05:25:35;98324.41;;;10.40;100.00
10464;BME280;5279;42.048;24.638;2022-12-18T05:28:08;98327.91;;;10.40;100.00
10464;BME280;5279;42.048;24.638;2022-12-18T05:30:39;98326.88;;;10.32;100.00
10464;BME280;5279;42.048;24.638;2022-12-18T05:33:06;98332.16;;;10.32;100.00
10464;BME280;5279;42.048;24.638;2022-12-18T05:35:38;98332.91;;;10.23;100.00
10464;BME280;5279;42.048;24.638;2022-12-18T05:38:13;98324.50;;;10.18;100.00
10464;BME280;5279;42.048;24.638;2022-12-18T05:40:47;98347.09;;;10.22;100.00
10464;BME280;5279;42.048;24.638;2022-12-18T05:43:22;98340.66;;;10.15;100.00
10464;BME280;5279;42.048;24.638;2022-12-18T05:46:02;98346.16;;;10.12;100.00
10464;BME280;5279;42.048;24.638;2022-12-18T05:48:39;98352.91;;;10.05;100.00
10464;BME280;5279;42.048;24.638;2022-12-18T05:51:21;98348.09;;;9.99;100.00
10464;BME280;5279;42.048;24.638;2022-12-18T05:54:01;98368.78;;;10.05;100.00
10464;BME280;5279;42.048;24.638;2022-12-18T05:56:51;98373.69;;;10.09;100.00
10464;BME280;5279;42.048;24.638;2022-12-18T05:59:22;98374.34;;;10.02;100.00
10464;BME280;5279;42.048;24.638;2022-12-18T06:01:49;98389.25;;;10.03;100.00
10464;BME280;5279;42.048;24.638;2022-12-18T06:04:23;98387.94;;;10.08;100.00
10464;BME280;5279;42.048;24.638;2022-12-18T06:06:54;98371.44;;;10.05;100.00
10464;BME280;5279;42.048;24.638;2022-12-18T06:09:25;98379.84;;;10.10;100.00
10464;BME280;5279;42.048;24.638;2022-12-18T06:11:54;98397.22;;;10.14;100.00
10464;BME280;5279;42.048;24.638;2022-12-18T06:14:22;98391.69;;;10.17;100.00
10464;BME280;5279;42.048;24.638;2022-12-18T06:16:53;98396.94;;;10.28;100.00
10464;BME280;5279;42.048;24.638;2022-12-18T06:19:28;98397.31;;;10.23;100.00
10464;BME280;5279;42.048;24.638;2022-12-18T06:22:08;98403.22;;;10.27;100.00
10464;BME280;5279;42.048;24.638;2022-12-18T06:24:45;98391.69;;;10.17;100.00
10464;BME280;5279;42.048;24.638;2022-12-18T06:27:17;98414.31;;;10.21;100.00
10464;BME280;5279;42.048;24.638;2022-12-18T06:29:46;98419.00;;;10.17;100.00
10464;BME280;5279;42.048;24.638;2022-12-18T06:32:19;98422.13;;;10.22;100.00
10464;BME280;5279;42.048;24.638;2022-12-18T06:34:54;98423.44;;;10.28;100.00
10464;BME280;5279;42.048;24.638;2022-12-18T06:37:23;98429.09;;;10.23;100.00
10464;BME280;5279;42.048;24.638;2022-12-18T06:40:01;98441.13;;;10.27;100.00
10464;BME280;5279;42.048;24.638;2022-12-18T06:42:33;98446.19;;;10.30;100.00
10464;BME280;5279;42.048;24.638;2022-12-18T06:45:00;98437.88;;;10.35;100.00
10464;BME280;5279;42.048;24.638;2022-12-18T06:47:29;98451.84;;;10.37;100.00
10464;BME280;5279;42.048;24.638;2022-12-18T06:49:56;98454.13;;;10.41;100.00
10464;BME280;5279;42.048;24.638;2022-12-18T06:52:24;98449.44;;;10.34;100.00
10464;BME280;5279;42.048;24.638;2022-12-18T06:54:52;98460.03;;;10.45;100.00
10464;BME280;5279;42.048;24.638;2022-12-18T06:57:21;98471.09;;;10.50;100.00
10464;BME280;5279;42.048;24.638;2022-12-18T06:59:50;98463.75;;;10.54;100.00
10464;BME280;5279;42.048;24.638;2022-12-18T07:02:19;98457.25;;;10.47;100.00
10464;BME280;5279;42.048;24.638;2022-12-18T07:04:49;98467.47;;;10.62;100.00
10464;BME280;5279;42.048;24.638;2022-12-18T07:07:17;98469.66;;;10.57;100.00
10464;BME280;5279;42.048;24.638;2022-12-18T07:09:44;98475.88;;;10.67;100.00
10464;BME280;5279;42.048;24.638;2022-12-18T07:12:14;98479.50;;;10.66;100.00
10464;BME280;5279;42.048;24.638;2022-12-18T07:14:42;98474.91;;;10.68;100.00
10464;BME280;5279;42.048;24.638;2022-12-18T07:17:17;98480.69;;;10.73;100.00
10464;BME280;5279;42.048;24.638;2022-12-18T07:19:55;98482.13;;;10.77;100.00
10464;BME280;5279;42.048;24.638;2022-12-18T07:22:24;98483.56;;;10.70;100.00
10464;BME280;5279;42.048;24.638;2022-12-18T07:24:51;98494.19;;;10.70;100.00
10464;BME280;5279;42.048;24.638;2022-12-18T07:27:20;98487.44;;;10.77;100.00
10464;BME280;5279;42.048;24.638;2022-12-18T07:30:00;98473.72;;;10.72;100.00
10464;BME280;5279;42.048;24.638;2022-12-18T07:32:40;98503.69;;;10.84;100.00
10464;BME280;5279;42.048;24.638;2022-12-18T07:35:14;98499.72;;;10.78;100.00
10464;BME280;5279;42.048;24.638;2022-12-18T07:37:50;98510.31;;;10.78;100.00
10464;BME280;5279;42.048;24.638;2022-12-18T07:40:32;98510.56;;;10.75;100.00
10464;BME280;5279;42.048;24.638;2022-12-18T07:43:02;98510.81;;;10.72;100.00
10464;BME280;5279;42.048;24.638;2022-12-18T07:45:33;98510.09;;;10.70;100.00
10464;BME280;5279;42.048;24.638;2022-12-18T07:48:04;98507.44;;;10.70;100.00
10464;BME280;5279;42.048;24.638;2022-12-18T07:50:38;98527.72;;;10.60;100.00
10464;BME280;5279;42.048;24.638;2022-12-18T07:53:34;98517.09;;;10.49;100.00
10464;BME280;5279;42.048;24.638;2022-12-18T07:56:05;98527.09;;;10.57;100.00
10464;BME280;5279;42.048;24.638;2022-12-18T07:58:36;98522.91;;;10.54;100.00
10464;BME280;5279;42.048;24.638;2022-12-18T08:01:16;98525.03;;;10.49;100.00
10464;BME280;5279;42.048;24.638;2022-12-18T08:03:56;98539.75;;;10.42;100.00
10464;BME280;5279;42.048;24.638;2022-12-18T08:06:31;98533.50;;;10.32;100.00
10464;BME280;5279;42.048;24.638;2022-12-18T08:09:02;98557.81;;;10.26;100.00
10464;BME280;5279;42.048;24.638;2022-12-18T08:11:39;98529.88;;;10.33;100.00
10464;BME280;5279;42.048;24.638;2022-12-18T08:14:12;98534.22;;;10.23;100.00
10464;BME280;5279;42.048;24.638;2022-12-18T08:17:01;98549.38;;;10.32;100.00
10464;BME280;5279;42.048;24.638;2022-12-18T08:19:33;98544.09;;;10.32;100.00
10464;BME280;5279;42.048;24.638;2022-12-18T08:22:01;98562.72;;;10.30;100.00
10464;BME280;5279;42.048;24.638;2022-12-18T08:24:34;98558.28;;;10.31;100.00
10464;BME280;5279;42.048;24.638;2022-12-18T08:27:07;98558.91;;;10.23;100.00
10464;BME280;5279;42.048;24.638;2022-12-18T08:29:37;98556.84;;;10.27;100.00
10464;BME280;5279;42.048;24.638;2022-12-18T08:32:06;98558.03;;;10.34;100.00
10464;BME280;5279;42.048;24.638;2022-12-18T08:34:37;98559.75;;;10.35;100.00
10464;BME280;5279;42.048;24.638;2022-12-18T08:37:06;98562.16;;;10.38;100.00
10464;BME280;5279;42.048;24.638;2022-12-18T08:39:43;98546.97;;;10.40;100.00
10464;BME280;5279;42.048;24.638;2022-12-18T08:42:18;98541.53;;;10.30;100.00
10464;BME280;5279;42.048;24.638;2022-12-18T08:45:05;98559.03;;;10.44;100.00
10464;BME280;5279;42.048;24.638;2022-12-18T08:47:35;98557.59;;;10.51;100.00
10464;BME280;5279;42.048;24.638;2022-12-18T08:50:09;98555.19;;;10.48;100.00
10464;BME280;5279;42.048;24.638;2022-12-18T08:52:42;98552.88;;;10.43;100.00
10464;BME280;5279;42.048;24.638;2022-12-18T08:55:31;98550.25;;;10.32;100.00
10464;BME280;5279;42.048;24.638;2022-12-18T08:57:58;98539.41;;;10.35;100.00
10464;BME280;5279;42.048;24.638;2022-12-18T09:00:25;98546.63;;;10.33;100.00
10464;BME280;5279;42.048;24.638;2022-12-18T09:02:54;98542.63;;;10.28;100.00
10464;BME280;5279;42.048;24.638;2022-12-18T09:05:27;98539.03;;;10.29;100.00
10464;BME280;5279;42.048;24.638;2022-12-18T09:08:06;98536.03;;;10.33;100.00
10464;BME280;5279;42.048;24.638;2022-12-18T09:10:45;98546.72;;;10.43;100.00
10464;BME280;5279;42.048;24.638;2022-12-18T09:13:18;98545.19;;;10.52;100.00
10464;BME280;5279;42.048;24.638;2022-12-18T09:15:51;98552.28;;;10.62;100.00
10464;BME280;5279;42.048;24.638;2022-12-18T09:18:21;98546.47;;;10.68;100.00
10464;BME280;5279;42.048;24.638;2022-12-18T09:20:55;98537.81;;;10.66;100.00
10464;BME280;5279;42.048;24.638;2022-12-18T09:23:24;98542.16;;;10.56;100.00
10464;BME280;5279;42.048;24.638;2022-12-18T09:25:58;98542.63;;;10.50;100.00
10464;BME280;5279;42.048;24.638;2022-12-18T09:28:33;98538.16;;;10.62;100.00
10464;BME280;5279;42.048;24.638;2022-12-18T09:31:08;98541.69;;;10.51;100.00
10464;BME280;5279;42.048;24.638;2022-12-18T09:33:38;98530.59;;;10.46;100.00
10464;BME280;5279;42.048;24.638;2022-12-18T09:36:12;98538.28;;;10.49;100.00
10464;BME280;5279;42.048;24.638;2022-12-18T09:38:41;98536.84;;;10.56;100.00
10464;BME280;5279;42.048;24.638;2022-12-18T09:41:19;98551.53;;;10.49;100.00
10464;BME280;5279;42.048;24.638;2022-12-18T09:43:55;98534.09;;;10.47;100.00
10464;BME280;5279;42.048;24.638;2022-12-18T09:46:32;98527.44;;;10.52;100.00
10464;BME280;5279;42.048;24.638;2022-12-18T09:49:05;98540.94;;;10.49;100.00
10464;BME280;5279;42.048;24.638;2022-12-18T09:51:44;98544.59;;;10.48;100.00
10464;BME280;5279;42.048;24.638;2022-12-18T09:54:24;98541.19;;;10.46;100.00
10464;BME280;5279;42.048;24.638;2022-12-18T09:57:17;98549.63;;;10.51;100.00
10464;BME280;5279;42.048;24.638;2022-12-18T10:00:02;98539.50;;;10.34;100.00
10464;BME280;5279;42.048;24.638;2022-12-18T10:02:33;98540.47;;;10.55;100.00
10464;BME280;5279;42.048;24.638;2022-12-18T10:05:05;98543.97;;;10.56;100.00
10464;BME280;5279;42.048;24.638;2022-12-18T10:07:55;98538.44;;;10.48;100.00
10464;BME280;5279;42.048;24.638;2022-12-18T10:10:36;98548.44;;;10.44;100.00
10464;BME280;5279;42.048;24.638;2022-12-18T10:13:16;98534.94;;;10.47;100.00
10464;BME280;5279;42.048;24.638;2022-12-18T10:15:54;98540.25;;;10.36;100.00
10464;BME280;5279;42.048;24.638;2022-12-18T10:18:33;98541.66;;;10.40;100.00
10464;BME280;5279;42.048;24.638;2022-12-18T10:21:15;98541.44;;;10.43;100.00
10464;BME280;5279;42.048;24.638;2022-12-18T10:23:55;98542.88;;;10.47;100.00
10464;BME280;5279;42.048;24.638;2022-12-18T10:26:30;98540.72;;;10.30;100.00
10464;BME280;5279;42.048;24.638;2022-12-18T10:29:10;98546.03;;;10.30;100.00
10464;BME280;5279;42.048;24.638;2022-12-18T10:31:46;98550.34;;;10.31;100.00
10464;BME280;5279;42.048;24.638;2022-12-18T10:34:14;98517.00;;;10.17;100.00
10464;BME280;5279;42.048;24.638;2022-12-18T10:36:41;98535.56;;;10.39;100.00
10464;BME280;5279;42.048;24.638;2022-12-18T10:39:20;98543.59;;;10.38;100.00
10464;BME280;5279;42.048;24.638;2022-12-18T10:42:11;98531.66;;;10.21;100.00
10464;BME280;5279;42.048;24.638;2022-12-18T10:44:45;98555.78;;;10.29;100.00
10464;BME280;5279;42.048;24.638;2022-12-18T10:47:18;98544.31;;;10.29;100.00
10464;BME280;5279;42.048;24.638;2022-12-18T10:49:52;98542.88;;;10.25;100.00
10464;BME280;5279;42.048;24.638;2022-12-18T10:52:25;98556.34;;;10.22;100.00
10464;BME280;5279;42.048;24.638;2022-12-18T10:54:59;98554.38;;;10.13;100.00
10464;BME280;5279;42.048;24.638;2022-12-18T10:57:37;98555.88;;;10.17;100.00
10464;BME280;5279;42.048;24.638;2022-12-18T11:00:25;98562.63;;;10.21;100.00
10464;BME280;5279;42.048;24.638;2022-12-18T11:02:56;98559.06;;;10.09;100.00
10464;BME280;5279;42.048;24.638;2022-12-18T11:05:28;98557.28;;;10.10;100.00
10464;BME280;5279;42.048;24.638;2022-12-18T11:08:01;98557.56;;;10.18;100.00
10464;BME280;5279;42.048;24.638;2022-12-18T11:10:35;98549.16;;;10.24;100.00
10464;BME280;5279;42.048;24.638;2022-12-18T11:13:11;98571.28;;;10.23;100.00
10464;BME280;5279;42.048;24.638;2022-12-18T11:15:41;98569.84;;;10.19;100.00
10464;BME280;5279;42.048;24.638;2022-12-18T11:18:20;98562.63;;;10.21;100.00
10464;BME280;5279;42.048;24.638;2022-12-18T11:20:53;98571.78;;;10.17;100.00
10464;BME280;5279;42.048;24.638;2022-12-18T11:23:27;98577.31;;;10.14;100.00
10464;BME280;5279;42.048;24.638;2022-12-18T11:26:04;98583.28;;;10.05;100.00
10464;BME280;5279;42.048;24.638;2022-12-18T11:28:41;98576.78;;;10.09;100.00
10464;BME280;5279;42.048;24.638;2022-12-18T11:31:24;98573.75;;;10.02;100.00
10464;BME280;5279;42.048;24.638;2022-12-18T11:34:02;98577.59;;;9.98;100.00
10464;BME280;5279;42.048;24.638;2022-12-18T11:36:36;98580.59;;;9.94;100.00
10464;BME280;5279;42.048;24.638;2022-12-18T11:39:19;98576.78;;;10.09;100.00
10464;BME280;5279;42.048;24.638;2022-12-18T11:41:54;98594.41;;;10.21;100.00
10464;BME280;5279;42.048;24.638;2022-12-18T11:44:46;98596.22;;;10.31;100.00
10464;BME280;5279;42.048;24.638;2022-12-18T11:47:27;98599.47;;;10.46;100.00
10464;BME280;5279;42.048;24.638;2022-12-18T11:50:00;98603.59;;;10.61;100.00
10464;BME280;5279;42.048;24.638;2022-12-18T11:52:34;98611.28;;;10.64;100.00
10464;BME280;5279;42.048;24.638;2022-12-18T11:55:19;98612.00;;;10.55;100.00
10464;BME280;5279;42.048;24.638;2022-12-18T11:58:04;98613.94;;;10.64;100.00
10464;BME280;5279;42.048;24.638;2022-12-18T12:00:42;98608.88;;;10.61;100.00
10464;BME280;5279;42.048;24.638;2022-12-18T12:03:27;98607.94;;;10.51;100.00
10464;BME280;5279;42.048;24.638;2022-12-18T12:06:19;98612.03;;;10.66;100.00
10464;BME280;5279;42.048;24.638;2022-12-18T12:09:01;98608.66;;;10.64;100.00
10464;BME280;5279;42.048;24.638;2022-12-18T12:11:49;98608.88;;;10.61;100.00
10464;BME280;5279;42.048;24.638;2022-12-18T12:14:39;98595.28;;;10.43;100.00
10464;BME280;5279;42.048;24.638;2022-12-18T12:17:21;98602.41;;;10.54;100.00
10464;BME280;5279;42.048;24.638;2022-12-18T12:19:57;98623.22;;;10.59;100.00
10464;BME280;5279;42.048;24.638;2022-12-18T12:22:39;98601.28;;;10.34;100.00
10464;BME280;5279;42.048;24.638;2022-12-18T12:25:31;98606.47;;;10.36;100.00
10464;BME280;5279;42.048;24.638;2022-12-18T12:28:15;98617.03;;;10.25;100.00
10464;BME280;5279;42.048;24.638;2022-12-18T12:30:57;98615.59;;;10.21;100.00
10464;BME280;5279;42.048;24.638;2022-12-18T12:33:39;98615.28;;;10.13;100.00
10464;BME280;5279;42.048;24.638;2022-12-18T12:36:17;98635.72;;;10.23;100.00
10464;BME280;5279;42.048;24.638;2022-12-18T12:38:57;98625.25;;;10.33;100.00
10464;BME280;5279;42.048;24.638;2022-12-18T12:41:31;98630.22;;;10.49;100.00
10464;BME280;5279;42.048;24.638;2022-12-18T12:47:25;98625.78;;;10.60;100.00
10464;BME280;5279;42.048;24.638;2022-12-18T12:49:59;98631.53;;;10.65;100.00
10464;BME280;5279;42.048;24.638;2022-12-18T12:52:35;98646.50;;;10.77;100.00
10464;BME280;5279;42.048;24.638;2022-12-18T12:55:12;98654.44;;;10.66;100.00
10464;BME280;5279;42.048;24.638;2022-12-18T12:57:48;98652.47;;;10.46;100.00
10464;BME280;5279;42.048;24.638;2022-12-18T13:00:23;98649.34;;;10.41;100.00
10464;BME280;5279;42.048;24.638;2022-12-18T13:03:01;98654.16;;;10.12;100.00
10464;BME280;5279;42.048;24.638;2022-12-18T13:05:38;98652.97;;;10.05;100.00
10464;BME280;5279;42.048;24.638;2022-12-18T13:08:22;98675.91;;;9.94;100.00
10464;BME280;5279;42.048;24.638;2022-12-18T13:10:52;98676.09;;;9.79;100.00
10464;BME280;5279;42.048;24.638;2022-12-18T13:13:51;98668.59;;;9.73;100.00
10464;BME280;5279;42.048;24.638;2022-12-18T13:19:25;98673.56;;;9.54;100.00
10464;BME280;5279;42.048;24.638;2022-12-18T13:21:59;98674.00;;;9.48;100.00
10464;BME280;5279;42.048;24.638;2022-12-18T13:24:30;98669.94;;;9.55;100.00
10464;BME280;5279;42.048;24.638;2022-12-18T13:27:00;98677.34;;;9.63;100.00
10464;BME280;5279;42.048;24.638;2022-12-18T13:29:50;98670.63;;;9.46;100.00
10464;BME280;5279;42.048;24.638;2022-12-18T13:32:24;98671.41;;;9.59;100.00
10464;BME280;5279;42.048;24.638;2022-12-18T13:37:58;98683.25;;;9.66;100.00
10464;BME280;5279;42.048;24.638;2022-12-18T13:40:58;98689.53;;;9.76;100.00
10464;BME280;5279;42.048;24.638;2022-12-18T13:43:33;98697.47;;;9.76;100.00
10464;BME280;5279;42.048;24.638;2022-12-18T13:46:26;98684.47;;;9.50;100.00